createdAt,value
2022-12-14T00:01:26.230Z,7.90
2022-12-14T00:03:59.731Z,7.90
2022-12-14T00:06:34.546Z,7.53
2022-12-14T00:09:08.201Z,7.30
2022-12-14T00:11:41.060Z,7.20
2022-12-14T00:14:14.011Z,7.20
2022-12-14T00:16:47.026Z,7.00
2022-12-14T00:19:20.211Z,6.70
2022-12-14T00:21:53.254Z,6.90
2022-12-14T00:24:30.596Z,6.50
2022-12-14T00:27:03.560Z,6.50
2022-12-14T00:29:36.472Z,6.40
2022-12-14T00:32:13.933Z,6.40
2022-12-14T00:34:46.831Z,6.20
2022-12-14T00:37:20.217Z,6.40
2022-12-14T00:39:53.142Z,6.53
2022-12-14T00:42:25.991Z,6.20
2022-12-14T00:44:58.899Z,6.00
2022-12-14T00:47:36.129Z,5.80
2022-12-14T00:50:06.214Z,5.60
2022-12-14T00:52:38.938Z,5.60
2022-12-14T00:55:13.722Z,5.30
2022-12-14T00:57:46.569Z,5.70
2022-12-14T01:00:20.225Z,5.20
2022-12-14T01:02:52.961Z,5.23
2022-12-14T01:05:25.883Z,5.03
2022-12-14T01:07:58.735Z,4.90
2022-12-14T01:10:31.499Z,5.10
2022-12-14T01:13:04.369Z,5.30
2022-12-14T01:15:38.743Z,5.10
2022-12-14T01:18:12.012Z,5.20
2022-12-14T01:20:45.049Z,5.20
2022-12-14T01:23:18.106Z,5.40
2022-12-14T01:25:50.891Z,5.70
2022-12-14T01:28:24.942Z,5.60
2022-12-14T01:30:57.941Z,5.70
2022-12-14T01:33:30.877Z,5.40
2022-12-14T01:36:08.411Z,5.40
2022-12-14T01:38:41.767Z,5.40
2022-12-14T01:41:19.255Z,5.10
2022-12-14T01:43:57.363Z,5.00
2022-12-14T01:46:41.044Z,4.50
2022-12-14T01:49:21.759Z,4.70
2022-12-14T01:51:56.604Z,4.30
2022-12-14T01:54:31.591Z,4.27
2022-12-14T01:57:04.735Z,4.30
2022-12-14T01:59:39.545Z,3.90
2022-12-14T02:02:14.507Z,4.10
2022-12-14T02:04:52.123Z,4.00
2022-12-14T02:07:26.700Z,3.80
2022-12-14T02:10:01.238Z,3.80
2022-12-14T02:12:36.154Z,3.60
2022-12-14T02:15:09.286Z,3.40
2022-12-14T02:17:44.912Z,3.30
2022-12-14T02:20:20.023Z,3.50
2022-12-14T02:23:04.297Z,3.40
2022-12-14T02:25:50.867Z,3.30
2022-12-14T02:28:37.886Z,3.40
2022-12-14T02:31:15.932Z,3.30
2022-12-14T02:34:05.459Z,3.40
2022-12-14T02:36:52.387Z,3.53
2022-12-14T02:39:38.898Z,3.60
2022-12-14T02:42:13.523Z,3.53
2022-12-14T02:44:57.445Z,3.40
2022-12-14T02:47:36.036Z,3.30
2022-12-14T02:50:13.744Z,3.40
2022-12-14T02:52:55.022Z,3.70
2022-12-14T02:55:35.876Z,3.80
2022-12-14T02:58:16.733Z,4.00
2022-12-14T03:00:50.567Z,3.60
2022-12-14T03:03:23.717Z,3.60
2022-12-14T03:06:04.806Z,4.00
2022-12-14T03:08:39.493Z,3.60
2022-12-14T03:11:13.402Z,3.70
2022-12-14T03:13:56.520Z,3.80
2022-12-14T03:16:40.502Z,3.80
2022-12-14T03:19:33.443Z,3.80
2022-12-14T03:22:08.128Z,3.90
2022-12-14T03:24:51.384Z,4.00
2022-12-14T03:27:28.979Z,4.00
2022-12-14T03:30:04.421Z,4.10
2022-12-14T03:32:39.586Z,3.80
2022-12-14T03:35:17.331Z,3.80
2022-12-14T03:38:17.034Z,3.80
2022-12-14T03:41:00.633Z,3.90
2022-12-14T03:43:53.685Z,4.20
2022-12-14T03:46:43.562Z,4.57
2022-12-14T03:49:26.793Z,4.40
2022-12-14T03:52:20.130Z,4.50
2022-12-14T03:55:10.851Z,5.00
2022-12-14T03:58:08.269Z,4.70
2022-12-14T04:00:48.890Z,5.00
2022-12-14T04:03:31.182Z,5.00
2022-12-14T04:06:05.819Z,4.83
2022-12-14T04:09:01.362Z,4.90
2022-12-14T04:11:53.410Z,4.80
2022-12-14T04:14:48.023Z,5.10
2022-12-14T04:17:39.724Z,5.30
2022-12-14T04:20:18.689Z,5.20
2022-12-14T04:22:53.726Z,5.20
2022-12-14T04:25:48.873Z,5.30
2022-12-14T04:28:40.856Z,5.07
2022-12-14T04:31:16.188Z,5.50
2022-12-14T04:33:51.014Z,5.20
2022-12-14T04:36:37.608Z,5.10
2022-12-14T04:39:13.260Z,4.80
2022-12-14T04:41:48.398Z,5.10
2022-12-14T04:44:35.393Z,4.90
2022-12-14T04:47:10.800Z,4.70
2022-12-14T04:50:03.601Z,4.90
2022-12-14T04:52:41.529Z,4.60
2022-12-14T04:55:22.468Z,4.60
2022-12-14T04:58:13.787Z,4.80
2022-12-14T05:00:48.929Z,4.70
2022-12-14T05:03:29.645Z,4.90
2022-12-14T05:06:10.147Z,5.00
2022-12-14T05:08:54.260Z,4.70
2022-12-14T05:14:10.476Z,4.40
2022-12-14T05:16:43.816Z,4.20
2022-12-14T05:19:19.028Z,4.43
2022-12-14T05:21:51.890Z,4.50
2022-12-14T05:24:24.669Z,4.30
2022-12-14T05:26:57.529Z,4.10
2022-12-14T05:29:30.445Z,3.70
2022-12-14T05:32:04.057Z,3.30
2022-12-14T05:34:37.266Z,3.13
2022-12-14T05:37:16.221Z,3.07
2022-12-14T05:39:44.584Z,2.90
2022-12-14T05:42:17.819Z,2.60
2022-12-14T05:44:50.770Z,2.50
2022-12-14T05:47:23.795Z,2.50
2022-12-14T05:49:56.913Z,2.30
2022-12-14T05:52:32.643Z,2.20
2022-12-14T05:55:05.615Z,2.10
2022-12-14T05:57:38.517Z,2.50
2022-12-14T06:00:12.306Z,2.20
2022-12-14T06:02:45.345Z,2.30
2022-12-14T06:05:18.335Z,2.30
2022-12-14T06:07:51.200Z,2.20
2022-12-14T06:10:24.092Z,2.40
2022-12-14T06:12:57.253Z,2.10
2022-12-14T06:15:33.898Z,2.40
2022-12-14T06:18:04.250Z,2.40
2022-12-14T06:20:37.576Z,2.50
2022-12-14T06:23:10.511Z,2.50
2022-12-14T06:25:43.523Z,2.80
2022-12-14T06:28:16.394Z,2.90
2022-12-14T06:30:50.678Z,2.80
2022-12-14T06:33:23.718Z,2.80
2022-12-14T06:35:56.924Z,2.70
2022-12-14T06:38:32.990Z,2.50
2022-12-14T06:41:07.846Z,2.70
2022-12-14T06:43:41.019Z,2.70
2022-12-14T06:46:16.087Z,2.60
2022-12-14T06:48:50.402Z,2.50
2022-12-14T06:51:23.539Z,2.50
2022-12-14T06:53:57.916Z,2.60
2022-12-14T06:56:31.321Z,2.70
2022-12-14T06:59:06.736Z,2.70
2022-12-14T07:01:40.295Z,2.80
2022-12-14T07:04:13.748Z,2.60
2022-12-14T07:06:46.599Z,2.60
2022-12-14T07:09:19.438Z,2.80
2022-12-14T07:11:53.545Z,2.70
2022-12-14T07:14:27.714Z,2.40
2022-12-14T07:17:00.608Z,2.50
2022-12-14T07:19:33.621Z,2.80
2022-12-14T07:22:06.852Z,2.60
2022-12-14T07:24:39.659Z,2.50
2022-12-14T07:27:12.577Z,2.60
2022-12-14T07:29:45.526Z,2.40
2022-12-14T07:32:18.478Z,2.60
2022-12-14T07:34:52.269Z,2.47
2022-12-14T07:37:28.362Z,2.60
2022-12-14T07:40:01.245Z,2.50
2022-12-14T07:42:34.497Z,2.50
2022-12-14T07:45:07.748Z,2.93
2022-12-14T07:47:40.723Z,2.40
2022-12-14T07:50:14.075Z,2.60
2022-12-14T07:52:47.104Z,2.60
2022-12-14T07:55:20.684Z,2.50
2022-12-14T07:57:53.775Z,2.57
2022-12-14T08:00:27.129Z,2.40
2022-12-14T08:03:03.210Z,2.40
2022-12-14T08:05:36.349Z,2.40
2022-12-14T08:08:09.434Z,2.10
2022-12-14T08:10:42.556Z,2.30
2022-12-14T08:13:15.831Z,2.30
2022-12-14T08:15:49.858Z,2.40
2022-12-14T08:18:23.391Z,2.20
2022-12-14T08:21:01.462Z,2.20
2022-12-14T08:23:35.947Z,2.37
2022-12-14T08:26:10.805Z,2.30
2022-12-14T08:28:47.649Z,2.30
2022-12-14T08:31:22.247Z,2.20
2022-12-14T08:33:55.769Z,2.10
2022-12-14T08:36:31.043Z,2.20
2022-12-14T08:39:05.642Z,2.37
2022-12-14T08:41:39.265Z,2.30
2022-12-14T08:44:13.672Z,2.20
2022-12-14T08:46:46.964Z,2.40
2022-12-14T08:49:20.241Z,2.53
2022-12-14T08:51:53.141Z,2.40
2022-12-14T08:54:26.354Z,2.30
2022-12-14T08:56:59.259Z,2.40
2022-12-14T09:00:00.202Z,2.50
2022-12-14T09:02:07.320Z,2.60
2022-12-14T09:04:40.954Z,2.70
2022-12-14T09:07:13.967Z,2.40
2022-12-14T09:09:46.873Z,2.77
2022-12-14T09:12:19.922Z,2.70
2022-12-14T09:14:53.023Z,2.90
2022-12-14T09:17:26.077Z,2.60
2022-12-14T09:19:59.987Z,2.90
2022-12-14T09:22:32.808Z,2.70
2022-12-14T09:25:06.473Z,2.80
2022-12-14T09:27:39.420Z,2.70
2022-12-14T09:30:13.288Z,2.80
2022-12-14T09:32:50.625Z,2.70
2022-12-14T09:35:21.432Z,2.60
2022-12-14T09:37:55.131Z,2.70
2022-12-14T09:40:29.893Z,2.70
2022-12-14T09:43:05.004Z,2.70
2022-12-14T09:45:43.294Z,2.80
2022-12-14T09:48:26.676Z,2.70
2022-12-14T09:50:59.768Z,2.50
2022-12-14T09:53:33.383Z,2.60
2022-12-14T09:56:06.302Z,2.90
2022-12-14T09:58:39.874Z,2.70
2022-12-14T10:01:27.386Z,2.77
2022-12-14T10:04:20.923Z,2.80
2022-12-14T10:07:24.350Z,2.83
2022-12-14T10:10:11.399Z,2.80
2022-12-14T10:12:51.602Z,2.83
2022-12-14T10:15:32.733Z,3.40
2022-12-14T10:18:49.894Z,2.80
2022-12-14T10:21:08.127Z,2.90
2022-12-14T10:23:42.590Z,2.80
2022-12-14T10:26:17.837Z,2.80
2022-12-14T10:28:57.812Z,2.90
2022-12-14T10:31:41.685Z,2.80
2022-12-14T10:34:25.881Z,3.00
2022-12-14T10:37:16.063Z,2.90
2022-12-14T10:39:55.970Z,2.80
2022-12-14T10:42:49.499Z,2.80
2022-12-14T10:47:59.295Z,2.80
2022-12-14T10:50:49.684Z,2.80
2022-12-14T10:53:21.678Z,2.90
2022-12-14T10:55:56.400Z,2.80
2022-12-14T10:58:30.037Z,2.80
2022-12-14T11:01:03.198Z,2.60
2022-12-14T11:03:36.786Z,2.67
2022-12-14T11:06:11.818Z,2.80
2022-12-14T11:08:52.173Z,2.60
2022-12-14T11:11:27.542Z,2.90
2022-12-14T11:14:11.340Z,2.70
2022-12-14T11:16:44.763Z,2.63
2022-12-14T11:19:22.748Z,2.60
2022-12-14T11:21:57.621Z,2.60
2022-12-14T11:24:32.131Z,2.70
2022-12-14T11:27:08.071Z,2.90
2022-12-14T11:29:42.588Z,2.90
2022-12-14T11:32:17.748Z,2.80
2022-12-14T11:34:52.772Z,2.80
2022-12-14T11:37:35.635Z,2.50
2022-12-14T11:40:11.312Z,2.80
2022-12-14T11:42:46.024Z,2.80
2022-12-14T11:45:31.109Z,2.90
2022-12-14T11:48:19.339Z,2.80
2022-12-14T11:50:54.616Z,2.83
2022-12-14T11:53:27.961Z,3.00
2022-12-14T11:56:02.632Z,3.07
2022-12-14T11:58:40.074Z,3.00
2022-12-14T12:01:17.793Z,3.10
2022-12-14T12:03:56.076Z,3.10
2022-12-14T12:06:31.002Z,3.10
2022-12-14T12:09:05.556Z,3.20
2022-12-14T12:11:39.357Z,3.10
2022-12-14T12:14:34.770Z,3.10
2022-12-14T12:17:09.773Z,3.30
2022-12-14T12:19:43.552Z,3.20
2022-12-14T12:22:17.634Z,3.20
2022-12-14T12:25:24.280Z,3.40
2022-12-14T12:27:32.235Z,3.23
2022-12-14T12:30:10.553Z,3.20
2022-12-14T12:32:49.928Z,3.20
2022-12-14T12:35:31.104Z,3.10
2022-12-14T12:38:09.216Z,3.10
2022-12-14T12:41:08.621Z,3.70
2022-12-14T12:43:43.746Z,3.50
2022-12-14T12:46:20.295Z,3.50
2022-12-14T12:48:57.737Z,3.50
2022-12-14T12:51:41.436Z,3.50
2022-12-14T12:54:16.063Z,3.50
2022-12-14T12:56:57.898Z,3.60
2022-12-14T12:59:50.641Z,3.80
2022-12-14T13:02:34.615Z,3.90
2022-12-14T13:05:45.901Z,4.00
2022-12-14T13:07:54.080Z,4.10
2022-12-14T13:10:42.060Z,4.00
2022-12-14T13:13:19.330Z,3.90
2022-12-14T13:15:54.857Z,3.90
2022-12-14T13:18:56.420Z,4.10
2022-12-14T13:21:05.632Z,3.90
2022-12-14T13:23:45.919Z,4.10
2022-12-14T13:26:55.687Z,4.27
2022-12-14T13:29:05.750Z,4.00
2022-12-14T13:31:52.917Z,4.50
2022-12-14T13:34:53.500Z,4.50
2022-12-14T13:37:40.133Z,4.50
2022-12-14T13:40:26.968Z,4.40
2022-12-14T13:43:20.361Z,4.33
2022-12-14T13:45:53.579Z,4.40
2022-12-14T13:48:36.122Z,4.50
2022-12-14T13:51:11.331Z,4.47
2022-12-14T13:53:53.715Z,4.73
2022-12-14T13:56:33.331Z,4.60
2022-12-14T13:59:05.188Z,4.60
2022-12-14T14:01:56.351Z,4.80
2022-12-14T14:04:35.773Z,4.80
2022-12-14T14:07:27.354Z,4.93
2022-12-14T14:10:04.756Z,5.03
2022-12-14T14:12:39.916Z,4.90
2022-12-14T14:15:38.064Z,4.70
2022-12-14T14:18:19.436Z,4.60
2022-12-14T14:21:11.081Z,4.70
2022-12-14T14:24:02.128Z,4.60
2022-12-14T14:26:37.220Z,4.70
2022-12-14T14:29:23.593Z,4.60
2022-12-14T14:32:03.812Z,4.80
2022-12-14T14:34:50.145Z,4.50
2022-12-14T14:37:30.944Z,4.77
2022-12-14T14:40:18.798Z,4.50
2022-12-14T14:42:42.302Z,4.50
2022-12-14T14:45:17.169Z,4.60
2022-12-14T14:47:52.597Z,4.30
2022-12-14T14:50:27.227Z,4.20
2022-12-14T14:53:05.030Z,4.67
2022-12-14T14:55:55.483Z,4.50
2022-12-14T14:58:28.739Z,4.50
2022-12-14T15:01:07.095Z,4.30
2022-12-14T15:03:54.364Z,4.70
2022-12-14T15:06:32.119Z,4.80
2022-12-14T15:09:13.106Z,4.60
2022-12-14T15:11:50.484Z,4.60
2022-12-14T15:14:48.476Z,4.70
2022-12-14T15:17:24.356Z,4.87
2022-12-14T15:20:01.387Z,4.70
2022-12-14T15:22:41.934Z,4.40
2022-12-14T15:25:16.856Z,4.60
2022-12-14T15:27:50.820Z,4.70
2022-12-14T15:30:31.514Z,4.60
2022-12-14T15:33:09.262Z,4.80
2022-12-14T15:35:44.631Z,4.40
2022-12-14T15:38:29.752Z,4.20
2022-12-14T15:41:04.383Z,4.20
2022-12-14T15:43:37.194Z,4.10
2022-12-14T15:46:12.512Z,4.00
2022-12-14T15:48:46.581Z,4.10
2022-12-14T15:51:21.444Z,4.30
2022-12-14T15:53:56.390Z,4.30
2022-12-14T15:56:42.606Z,4.30
2022-12-14T15:59:35.535Z,4.30
2022-12-14T16:02:19.200Z,3.97
2022-12-14T16:04:52.804Z,4.10
2022-12-14T16:07:42.855Z,4.40
2022-12-14T16:10:20.750Z,4.30
2022-12-14T16:12:55.215Z,4.20
2022-12-14T16:15:32.864Z,4.00
2022-12-14T16:18:06.025Z,4.27
2022-12-14T16:20:40.837Z,4.40
2022-12-14T16:23:22.211Z,4.10
2022-12-14T16:26:00.616Z,4.50
2022-12-14T16:28:40.747Z,4.10
2022-12-14T16:31:18.704Z,4.10
2022-12-14T16:33:53.302Z,4.53
2022-12-14T16:36:29.702Z,4.20
2022-12-14T16:39:04.816Z,4.50
2022-12-14T16:41:45.999Z,4.40
2022-12-14T16:44:27.595Z,4.30
2022-12-14T16:47:08.484Z,4.27
2022-12-14T16:49:43.258Z,4.10
2022-12-14T16:52:25.288Z,4.30
2022-12-14T16:55:18.073Z,4.10
2022-12-14T16:57:56.364Z,4.10
2022-12-14T17:00:34.146Z,3.90
2022-12-14T17:03:09.347Z,4.00
2022-12-14T17:05:46.972Z,3.83
2022-12-14T17:08:20.299Z,3.90
2022-12-14T17:10:53.672Z,3.80
2022-12-14T17:13:27.858Z,3.80
2022-12-14T17:16:09.160Z,3.80
2022-12-14T17:18:48.506Z,3.70
2022-12-14T17:21:23.348Z,3.57
2022-12-14T17:23:56.460Z,3.73
2022-12-14T17:26:31.497Z,3.50
2022-12-14T17:29:04.367Z,3.70
2022-12-14T17:31:37.418Z,3.60
2022-12-14T17:34:11.821Z,3.43
2022-12-14T17:36:44.739Z,3.40
2022-12-14T17:39:17.712Z,3.30
2022-12-14T17:41:50.968Z,3.40
2022-12-14T17:44:24.747Z,3.20
2022-12-14T17:46:57.545Z,3.20
2022-12-14T17:49:36.958Z,3.10
2022-12-14T17:52:12.758Z,3.20
2022-12-14T17:54:45.673Z,3.10
2022-12-14T17:57:23.479Z,3.23
2022-12-14T18:00:13.886Z,3.10
2022-12-14T18:02:47.402Z,3.30
2022-12-14T18:05:22.175Z,3.10
2022-12-14T18:07:55.056Z,3.10
2022-12-14T18:10:27.953Z,3.23
2022-12-14T18:13:01.193Z,2.90
2022-12-14T18:15:36.532Z,3.00
2022-12-14T18:18:10.269Z,2.90
2022-12-14T18:20:45.175Z,2.80
2022-12-14T18:23:20.167Z,2.80
2022-12-14T18:25:55.069Z,2.80
2022-12-14T18:28:28.815Z,3.40
2022-12-14T18:31:04.564Z,2.90
2022-12-14T18:33:42.889Z,3.00
2022-12-14T18:36:16.818Z,2.90
2022-12-14T18:38:53.386Z,2.90
2022-12-14T18:41:29.907Z,3.10
2022-12-14T18:44:04.739Z,3.10
2022-12-14T18:46:40.333Z,2.90
2022-12-14T18:49:15.143Z,2.80
2022-12-14T18:51:50.038Z,2.83
2022-12-14T18:54:23.448Z,3.10
2022-12-14T18:56:57.110Z,2.90
2022-12-14T18:59:39.087Z,2.90
2022-12-14T19:02:12.011Z,3.00
2022-12-14T19:04:46.955Z,3.20
2022-12-14T19:07:24.495Z,3.00
2022-12-14T19:09:58.655Z,3.07
2022-12-14T19:12:32.147Z,3.00
2022-12-14T19:15:05.989Z,3.00
2022-12-14T19:17:39.891Z,3.10
2022-12-14T19:20:13.711Z,2.90
2022-12-14T19:22:51.072Z,2.70
2022-12-14T19:25:26.321Z,2.60
2022-12-14T19:28:26.113Z,2.80
2022-12-14T19:30:36.526Z,2.70
2022-12-14T19:33:09.954Z,2.50
2022-12-14T19:35:45.470Z,2.40
2022-12-14T19:38:19.425Z,2.40
2022-12-14T19:41:04.180Z,2.10
2022-12-14T19:43:37.778Z,2.00
2022-12-14T19:46:12.907Z,2.03
2022-12-14T19:48:46.758Z,2.00
2022-12-14T19:51:20.960Z,2.00
2022-12-14T19:53:54.796Z,2.00
2022-12-14T19:56:28.661Z,2.10
2022-12-14T19:59:06.327Z,2.10
2022-12-14T20:01:47.872Z,2.03
2022-12-14T20:04:16.878Z,2.00
2022-12-14T20:06:50.116Z,1.93
2022-12-14T20:09:23.452Z,2.00
2022-12-14T20:11:56.286Z,2.10
2022-12-14T20:14:29.216Z,1.93
2022-12-14T20:17:02.213Z,2.00
2022-12-14T20:19:39.628Z,2.00
2022-12-14T20:22:13.189Z,2.10
2022-12-14T20:24:47.734Z,2.10
2022-12-14T20:27:20.904Z,2.00
2022-12-14T20:29:54.371Z,2.00
2022-12-14T20:32:27.324Z,2.20
2022-12-14T20:35:00.249Z,2.20
2022-12-14T20:37:33.253Z,2.30
2022-12-14T20:40:06.256Z,2.40
2022-12-14T20:42:39.308Z,2.50
2022-12-14T20:45:12.946Z,2.50
2022-12-14T20:47:45.888Z,2.50
2022-12-14T20:50:18.992Z,2.80
2022-12-14T20:52:51.696Z,2.77
2022-12-14T20:55:25.157Z,2.60
2022-12-14T20:57:58.380Z,2.70
2022-12-14T21:00:31.683Z,2.90
2022-12-14T21:03:05.741Z,2.70
2022-12-14T21:05:42.700Z,3.00
2022-12-14T21:08:16.915Z,2.90
2022-12-14T21:10:49.839Z,3.00
2022-12-14T21:13:22.670Z,2.97
2022-12-14T21:15:55.737Z,3.00
2022-12-14T21:18:28.547Z,3.00
2022-12-14T21:21:02.554Z,3.20
2022-12-14T21:23:35.606Z,3.07
2022-12-14T21:26:13.044Z,3.00
2022-12-14T21:28:45.931Z,3.30
2022-12-14T21:31:19.005Z,3.40
2022-12-14T21:33:52.339Z,3.50
2022-12-14T21:36:26.908Z,3.67
2022-12-14T21:38:59.976Z,3.80
2022-12-14T21:41:50.497Z,3.80
2022-12-14T21:44:27.617Z,4.30
2022-12-14T21:47:00.543Z,4.30
2022-12-14T21:49:33.455Z,4.10
2022-12-14T21:52:07.651Z,4.30
2022-12-14T21:54:40.822Z,4.30
2022-12-14T21:57:33.221Z,4.70
2022-12-14T22:00:08.476Z,4.80
2022-12-14T22:02:41.624Z,4.90
2022-12-14T22:05:14.899Z,4.90
2022-12-14T22:07:47.819Z,5.20
2022-12-14T22:10:24.773Z,4.90
2022-12-14T22:12:55.055Z,5.10
2022-12-14T22:15:27.787Z,5.10
2022-12-14T22:18:00.775Z,5.30
2022-12-14T22:20:33.655Z,5.00
2022-12-14T22:23:06.720Z,5.57
2022-12-14T22:25:40.059Z,5.60
2022-12-14T22:28:15.519Z,5.40
2022-12-14T22:30:48.543Z,5.80
2022-12-14T22:33:21.828Z,6.00
2022-12-14T22:35:55.109Z,6.00
2022-12-14T22:38:28.470Z,6.10
2022-12-14T22:41:08.849Z,6.30
2022-12-14T22:43:42.150Z,7.20
2022-12-14T22:46:16.526Z,7.00
2022-12-14T22:48:49.653Z,7.00
2022-12-14T22:51:22.839Z,7.00
2022-12-14T22:53:55.943Z,7.40
2022-12-14T22:56:46.446Z,8.10
2022-12-14T22:59:35.051Z,8.40
2022-12-14T23:02:08.494Z,7.90
2022-12-14T23:04:41.783Z,7.63
2022-12-14T23:07:14.834Z,8.30
2022-12-14T23:10:05.542Z,8.80
2022-12-14T23:12:55.945Z,8.20
2022-12-14T23:15:49.126Z,8.80
2022-12-14T23:18:39.519Z,8.77
2022-12-14T23:21:33.687Z,8.70
2022-12-14T23:24:24.206Z,9.20
2022-12-14T23:27:14.876Z,9.20
2022-12-14T23:30:05.137Z,8.80
2022-12-14T23:32:55.591Z,8.60
2022-12-14T23:35:47.314Z,9.30
2022-12-14T23:38:37.905Z,9.17
2022-12-14T23:41:28.530Z,9.80
2022-12-14T23:44:18.905Z,9.50
2022-12-14T23:47:09.016Z,9.70
2022-12-14T23:50:01.746Z,9.47
2022-12-14T23:52:50.806Z,10.73
2022-12-14T23:55:41.557Z,9.70
2022-12-14T23:58:32.627Z,10.10
